Daniela Morace — IJAJ2 — position and weather

sailwx.info

Track history (hours):
 
Tides and Currents Weather Stations Pressure Air Temp Water Temp Dewpoint Dewpoint Depression Visibility Wind Speed Wind Dir Waves Ship Positions

Daniela Morace

Last reported at 2014-Nov-22 16:28 UTC. Time now 2014-Nov-22 21:28 UTC.
Position N 38°13' E 015°15'.

Length 37 m; draft 1 m.

Type: Ship. MMSI: 247297500.

Date/timePositionNaut miles runAvg speedWind from/ knotsBaromVisibWave heightAir tempDewpointWater temp
2014-Nov-22 16:28N 38°13' E 015°15'0 0.0
2014-Nov-21 09:33N 38°13' E 015°15'0 0.0
2014-Nov-21 08:33N 38°13' E 015°15'0 0.0
2014-Nov-21 07:33N 38°13' E 015°15'0 0.0
2014-Nov-20 17:33N 38°13' E 015°15'0 0.0
2014-Nov-20 16:33N 38°13' E 015°15'0 0.0
2014-Nov-20 15:33N 38°13' E 015°15'0 0.0
2014-Nov-20 14:33N 38°13' E 015°15'6 5.7
2014-Nov-20 13:33N 38°18' E 015°13'4 0.6
2014-Nov-20 06:34N 38°15' E 015°17'3 0.3
2014-Nov-19 19:24N 38°17' E 015°14'5 1.1
2014-Nov-19 15:15N 38°20' E 015°09'912.4
2014-Nov-19 14:33N 38°13' E 015°15'6 5.7
2014-Nov-19 13:31N 38°19' E 015°12'4 0.6
2014-Nov-19 06:33N 38°16' E 015°16'8 0.5
2014-Nov-18 15:22N 38°22' E 015°09'1012.3
2014-Nov-18 14:34N 38°13' E 015°15'7 7.0
2014-Nov-18 13:33N 38°19' E 015°11'5 0.7
2014-Nov-18 06:33N 38°16' E 015°16'4 0.3
2014-Nov-17 19:33N 38°19' E 015°13'3 0.8
2014-Nov-17 15:16N 38°21' E 015°10'912.5
2014-Nov-17 14:34N 38°13' E 015°15'6 5.6
2014-Nov-17 13:33N 38°18' E 015°13'4 0.5
2014-Nov-17 06:33N 38°16' E 015°16'3 2.7
2014-Nov-17 05:33N 38°13' E 015°14'7 0.5
2014-Nov-16 15:08N 38°19' E 015°11'712.9
2014-Nov-16 14:34N 38°13' E 015°15'5 5.0
2014-Nov-16 13:32N 38°18' E 015°14'3 0.4
2014-Nov-16 06:33N 38°16' E 015°16'8 0.5
2014-Nov-15 15:15N 38°21' E 015°08'1013.9
2014-Nov-15 14:33N 38°13' E 015°15'4 3.7
2014-Nov-15 13:33N 38°17' E 015°15'1 0.2
2014-Nov-15 06:34N 38°16' E 015°16'10 0.7
2014-Nov-14 15:24N 38°23' E 015°07'1214.3
2014-Nov-14 14:33N 38°13' E 015°15'3 0.4
2014-Nov-14 06:33N 38°16' E 015°15'3 3.0
2014-Nov-14 05:31N 38°13' E 015°14'0 0.0
2014-Nov-13 18:21N 38°13' E 015°14'0 0.0
2014-Nov-13 17:33N 38°13' E 015°14'0 0.0
2014-Nov-13 16:33N 38°13' E 015°14'0 0.0
2014-Nov-13 15:33N 38°13' E 015°14'0 0.1
2014-Nov-13 14:33N 38°13' E 015°15'5 5.4
2014-Nov-13 13:33N 38°19' E 015°14'5 0.8
2014-Nov-13 06:33N 38°13' E 015°14'  
Track history (hours):
 
Tides and Currents Weather Stations Pressure Air Temp Water Temp Dewpoint Dewpoint Depression Visibility Wind Speed Wind Dir Waves Ship Positions

Daniela Morace

Last reported at 2014-Nov-22 16:28 UTC. Time now 2014-Nov-22 21:28 UTC.
Position N 38°13' E 015°15'.

Length 37 m; draft 1 m.

Type: Ship. MMSI: 247297500.

Date/timePositionNaut miles runAvg speedWind from/ knotsBaromVisibWave heightAir tempDewpointWater temp
2014-Nov-22 16:28N 38°13' E 015°15'0 0.0
2014-Nov-21 09:33N 38°13' E 015°15'0 0.0
2014-Nov-21 08:33N 38°13' E 015°15'0 0.0
2014-Nov-21 07:33N 38°13' E 015°15'0 0.0
2014-Nov-20 17:33N 38°13' E 015°15'0 0.0
2014-Nov-20 16:33N 38°13' E 015°15'0 0.0
2014-Nov-20 15:33N 38°13' E 015°15'0 0.0
2014-Nov-20 14:33N 38°13' E 015°15'6 5.7
2014-Nov-20 13:33N 38°18' E 015°13'4 0.6
2014-Nov-20 06:34N 38°15' E 015°17'3 0.3
2014-Nov-19 19:24N 38°17' E 015°14'5 1.1
2014-Nov-19 15:15N 38°20' E 015°09'912.4
2014-Nov-19 14:33N 38°13' E 015°15'6 5.7
2014-Nov-19 13:31N 38°19' E 015°12'4 0.6
2014-Nov-19 06:33N 38°16' E 015°16'8 0.5
2014-Nov-18 15:22N 38°22' E 015°09'1012.3
2014-Nov-18 14:34N 38°13' E 015°15'7 7.0
2014-Nov-18 13:33N 38°19' E 015°11'5 0.7
2014-Nov-18 06:33N 38°16' E 015°16'4 0.3
2014-Nov-17 19:33N 38°19' E 015°13'3 0.8
2014-Nov-17 15:16N 38°21' E 015°10'912.5
2014-Nov-17 14:34N 38°13' E 015°15'6 5.6
2014-Nov-17 13:33N 38°18' E 015°13'4 0.5
2014-Nov-17 06:33N 38°16' E 015°16'3 2.7
2014-Nov-17 05:33N 38°13' E 015°14'7 0.5
2014-Nov-16 15:08N 38°19' E 015°11'712.9
2014-Nov-16 14:34N 38°13' E 015°15'5 5.0
2014-Nov-16 13:32N 38°18' E 015°14'3 0.4
2014-Nov-16 06:33N 38°16' E 015°16'8 0.5
2014-Nov-15 15:15N 38°21' E 015°08'1013.9
2014-Nov-15 14:33N 38°13' E 015°15'4 3.7
2014-Nov-15 13:33N 38°17' E 015°15'1 0.2
2014-Nov-15 06:34N 38°16' E 015°16'10 0.7
2014-Nov-14 15:24N 38°23' E 015°07'1214.3
2014-Nov-14 14:33N 38°13' E 015°15'3 0.4
2014-Nov-14 06:33N 38°16' E 015°15'3 3.0
2014-Nov-14 05:31N 38°13' E 015°14'0 0.0
2014-Nov-13 18:21N 38°13' E 015°14'0 0.0
2014-Nov-13 17:33N 38°13' E 015°14'0 0.0
2014-Nov-13 16:33N 38°13' E 015°14'0 0.0
2014-Nov-13 15:33N 38°13' E 015°14'0 0.1
2014-Nov-13 14:33N 38°13' E 015°15'5 5.4
2014-Nov-13 13:33N 38°19' E 015°14'5 0.8
2014-Nov-13 06:33N 38°13' E 015°14'  

Dump ship's entire track history